sensor_id;sensor_type;location;lat;lon;timestamp;P1;durP1;ratioP1;P2;durP2;ratioP2
3783;SDS011;1907;49.238;9.262;2022-11-21T00:01:55;0.90;;;0.90;;
3783;SDS011;1907;49.238;9.262;2022-11-21T00:04:20;1.20;;;1.10;;
3783;SDS011;1907;49.238;9.262;2022-11-21T00:06:46;3.20;;;1.53;;
3783;SDS011;1907;49.238;9.262;2022-11-21T00:09:11;1.17;;;1.07;;
3783;SDS011;1907;49.238;9.262;2022-11-21T00:11:37;1.47;;;1.37;;
3783;SDS011;1907;49.238;9.262;2022-11-21T00:14:02;0.87;;;0.87;;
3783;SDS011;1907;49.238;9.262;2022-11-21T00:16:28;1.13;;;1.13;;
3783;SDS011;1907;49.238;9.262;2022-11-21T00:18:54;1.17;;;1.07;;
3783;SDS011;1907;49.238;9.262;2022-11-21T00:21:19;1.60;;;1.50;;
3783;SDS011;1907;49.238;9.262;2022-11-21T00:23:45;0.70;;;0.70;;
3783;SDS011;1907;49.238;9.262;2022-11-21T00:26:12;0.83;;;0.73;;
3783;SDS011;1907;49.238;9.262;2022-11-21T00:28:39;1.13;;;0.70;;
3783;SDS011;1907;49.238;9.262;2022-11-21T00:31:06;0.60;;;0.50;;
3783;SDS011;1907;49.238;9.262;2022-11-21T00:33:33;0.70;;;0.70;;
3783;SDS011;1907;49.238;9.262;2022-11-21T00:36:07;4.43;;;1.20;;
3783;SDS011;1907;49.238;9.262;2022-11-21T00:38:33;2.30;;;0.90;;
3783;SDS011;1907;49.238;9.262;2022-11-21T00:40:59;2.20;;;0.70;;
3783;SDS011;1907;49.238;9.262;2022-11-21T00:43:24;0.57;;;0.57;;
3783;SDS011;1907;49.238;9.262;2022-11-21T00:45:50;0.77;;;0.77;;
3783;SDS011;1907;49.238;9.262;2022-11-21T00:48:16;0.73;;;0.73;;
3783;SDS011;1907;49.238;9.262;2022-11-21T00:50:41;0.90;;;0.70;;
3783;SDS011;1907;49.238;9.262;2022-11-21T00:53:07;0.90;;;0.60;;
3783;SDS011;1907;49.238;9.262;2022-11-21T00:55:32;0.70;;;0.70;;
3783;SDS011;1907;49.238;9.262;2022-11-21T00:57:58;0.83;;;0.60;;
3783;SDS011;1907;49.238;9.262;2022-11-21T01:00:23;3.90;;;0.93;;
3783;SDS011;1907;49.238;9.262;2022-11-21T01:02:49;0.50;;;0.50;;
3783;SDS011;1907;49.238;9.262;2022-11-21T01:05:15;0.90;;;0.60;;
3783;SDS011;1907;49.238;9.262;2022-11-21T01:07:40;0.73;;;0.73;;
3783;SDS011;1907;49.238;9.262;2022-11-21T01:10:06;0.70;;;0.60;;
3783;SDS011;1907;49.238;9.262;2022-11-21T01:12:31;0.60;;;0.60;;
3783;SDS011;1907;49.238;9.262;2022-11-21T01:14:57;0.70;;;0.70;;
3783;SDS011;1907;49.238;9.262;2022-11-21T01:17:23;6.33;;;0.80;;
3783;SDS011;1907;49.238;9.262;2022-11-21T01:19:48;1.63;;;1.53;;
3783;SDS011;1907;49.238;9.262;2022-11-21T01:22:14;2.30;;;1.13;;
3783;SDS011;1907;49.238;9.262;2022-11-21T01:24:40;3.43;;;0.60;;
3783;SDS011;1907;49.238;9.262;2022-11-21T01:27:05;0.87;;;0.70;;
3783;SDS011;1907;49.238;9.262;2022-11-21T01:29:31;1.00;;;0.80;;
3783;SDS011;1907;49.238;9.262;2022-11-21T01:31:56;1.43;;;0.73;;
3783;SDS011;1907;49.238;9.262;2022-11-21T01:34:22;0.70;;;0.70;;
3783;SDS011;1907;49.238;9.262;2022-11-21T01:36:47;0.97;;;0.93;;
3783;SDS011;1907;49.238;9.262;2022-11-21T01:39:13;1.20;;;1.10;;
3783;SDS011;1907;49.238;9.262;2022-11-21T01:41:40;1.83;;;1.10;;
3783;SDS011;1907;49.238;9.262;2022-11-21T01:46:45;1.03;;;1.00;;
3783;SDS011;1907;49.238;9.262;2022-11-21T01:54:18;2.60;;;0.70;;
3783;SDS011;1907;49.238;9.262;2022-11-21T01:59:26;0.87;;;0.87;;
3783;SDS011;1907;49.238;9.262;2022-11-21T02:02:01;1.00;;;0.60;;
3783;SDS011;1907;49.238;9.262;2022-11-21T02:04:30;1.73;;;0.80;;
3783;SDS011;1907;49.238;9.262;2022-11-21T02:06:58;1.87;;;1.00;;
3783;SDS011;1907;49.238;9.262;2022-11-21T02:09:25;1.33;;;0.80;;
3783;SDS011;1907;49.238;9.262;2022-11-21T02:11:57;0.70;;;0.70;;
3783;SDS011;1907;49.238;9.262;2022-11-21T02:14:28;0.80;;;0.73;;
3783;SDS011;1907;49.238;9.262;2022-11-21T02:16:55;0.77;;;0.70;;
3783;SDS011;1907;49.238;9.262;2022-11-21T02:19:31;1.10;;;0.90;;
3783;SDS011;1907;49.238;9.262;2022-11-21T02:25:14;1.00;;;0.70;;
3783;SDS011;1907;49.238;9.262;2022-11-21T02:27:48;0.53;;;0.53;;
3783;SDS011;1907;49.238;9.262;2022-11-21T02:30:16;1.13;;;0.80;;
3783;SDS011;1907;49.238;9.262;2022-11-21T02:32:43;0.50;;;0.50;;
3783;SDS011;1907;49.238;9.262;2022-11-21T02:35:11;0.53;;;0.53;;
3783;SDS011;1907;49.238;9.262;2022-11-21T02:37:38;0.70;;;0.70;;
3783;SDS011;1907;49.238;9.262;2022-11-21T02:40:07;0.40;;;0.40;;
3783;SDS011;1907;49.238;9.262;2022-11-21T02:43:01;0.50;;;0.50;;
3783;SDS011;1907;49.238;9.262;2022-11-21T02:47:59;0.50;;;0.50;;
3783;SDS011;1907;49.238;9.262;2022-11-21T02:50:26;2.00;;;0.60;;
3783;SDS011;1907;49.238;9.262;2022-11-21T02:52:53;0.60;;;0.50;;
3783;SDS011;1907;49.238;9.262;2022-11-21T02:55:20;0.60;;;0.60;;
3783;SDS011;1907;49.238;9.262;2022-11-21T02:57:46;0.47;;;0.47;;
3783;SDS011;1907;49.238;9.262;2022-11-21T03:00:12;1.93;;;0.60;;
3783;SDS011;1907;49.238;9.262;2022-11-21T03:02:38;0.73;;;0.73;;
3783;SDS011;1907;49.238;9.262;2022-11-21T03:05:04;1.90;;;1.40;;
3783;SDS011;1907;49.238;9.262;2022-11-21T03:07:31;0.60;;;0.60;;
3783;SDS011;1907;49.238;9.262;2022-11-21T03:09:56;0.60;;;0.60;;
3783;SDS011;1907;49.238;9.262;2022-11-21T03:12:22;0.80;;;0.80;;
3783;SDS011;1907;49.238;9.262;2022-11-21T03:14:48;0.50;;;0.50;;
3783;SDS011;1907;49.238;9.262;2022-11-21T03:17:13;0.70;;;0.70;;
3783;SDS011;1907;49.238;9.262;2022-11-21T03:19:39;0.70;;;0.70;;
3783;SDS011;1907;49.238;9.262;2022-11-21T03:22:04;0.70;;;0.70;;
3783;SDS011;1907;49.238;9.262;2022-11-21T03:24:30;0.60;;;0.60;;
3783;SDS011;1907;49.238;9.262;2022-11-21T03:26:56;1.50;;;1.27;;
3783;SDS011;1907;49.238;9.262;2022-11-21T03:29:21;1.30;;;0.87;;
3783;SDS011;1907;49.238;9.262;2022-11-21T03:31:47;0.50;;;0.50;;
3783;SDS011;1907;49.238;9.262;2022-11-21T03:34:13;0.53;;;0.50;;
3783;SDS011;1907;49.238;9.262;2022-11-21T03:36:38;0.50;;;0.50;;
3783;SDS011;1907;49.238;9.262;2022-11-21T03:39:04;1.87;;;0.90;;
3783;SDS011;1907;49.238;9.262;2022-11-21T03:41:29;2.77;;;0.70;;
3783;SDS011;1907;49.238;9.262;2022-11-21T03:43:59;0.50;;;0.50;;
3783;SDS011;1907;49.238;9.262;2022-11-21T03:46:30;0.60;;;0.60;;
3783;SDS011;1907;49.238;9.262;2022-11-21T03:48:57;0.50;;;0.50;;
3783;SDS011;1907;49.238;9.262;2022-11-21T03:51:23;2.53;;;0.80;;
3783;SDS011;1907;49.238;9.262;2022-11-21T03:53:49;0.50;;;0.50;;
3783;SDS011;1907;49.238;9.262;2022-11-21T03:56:15;1.43;;;0.70;;
3783;SDS011;1907;49.238;9.262;2022-11-21T03:58:41;1.40;;;0.70;;
3783;SDS011;1907;49.238;9.262;2022-11-21T04:01:07;0.60;;;0.60;;
3783;SDS011;1907;49.238;9.262;2022-11-21T04:03:33;0.80;;;0.80;;
3783;SDS011;1907;49.238;9.262;2022-11-21T04:05:59;0.60;;;0.60;;
3783;SDS011;1907;49.238;9.262;2022-11-21T04:08:25;0.63;;;0.63;;
3783;SDS011;1907;49.238;9.262;2022-11-21T04:10:51;0.87;;;0.87;;
3783;SDS011;1907;49.238;9.262;2022-11-21T04:13:18;1.90;;;0.50;;
3783;SDS011;1907;49.238;9.262;2022-11-21T04:15:44;0.40;;;0.40;;
3783;SDS011;1907;49.238;9.262;2022-11-21T04:18:11;0.60;;;0.60;;
3783;SDS011;1907;49.238;9.262;2022-11-21T04:20:37;0.60;;;0.60;;
3783;SDS011;1907;49.238;9.262;2022-11-21T04:23:03;0.73;;;0.73;;
3783;SDS011;1907;49.238;9.262;2022-11-21T04:25:29;0.60;;;0.60;;
3783;SDS011;1907;49.238;9.262;2022-11-21T04:27:56;0.93;;;0.83;;
3783;SDS011;1907;49.238;9.262;2022-11-21T04:30:22;1.23;;;0.80;;
3783;SDS011;1907;49.238;9.262;2022-11-21T04:32:51;0.63;;;0.60;;
3783;SDS011;1907;49.238;9.262;2022-11-21T04:35:17;0.73;;;0.73;;
3783;SDS011;1907;49.238;9.262;2022-11-21T04:37:43;1.23;;;0.80;;
3783;SDS011;1907;49.238;9.262;2022-11-21T04:40:09;0.90;;;0.90;;
3783;SDS011;1907;49.238;9.262;2022-11-21T04:42:35;0.60;;;0.60;;
3783;SDS011;1907;49.238;9.262;2022-11-21T04:45:00;0.70;;;0.70;;
3783;SDS011;1907;49.238;9.262;2022-11-21T04:47:26;0.60;;;0.60;;
3783;SDS011;1907;49.238;9.262;2022-11-21T04:49:51;2.80;;;0.80;;
3783;SDS011;1907;49.238;9.262;2022-11-21T04:52:17;1.70;;;1.10;;
3783;SDS011;1907;49.238;9.262;2022-11-21T04:54:43;0.73;;;0.73;;
3783;SDS011;1907;49.238;9.262;2022-11-21T04:57:08;2.40;;;0.70;;
3783;SDS011;1907;49.238;9.262;2022-11-21T04:59:34;0.60;;;0.60;;
3783;SDS011;1907;49.238;9.262;2022-11-21T05:02:01;1.80;;;0.60;;
3783;SDS011;1907;49.238;9.262;2022-11-21T05:04:27;1.10;;;1.10;;
3783;SDS011;1907;49.238;9.262;2022-11-21T05:06:52;1.87;;;1.20;;
3783;SDS011;1907;49.238;9.262;2022-11-21T05:09:18;0.77;;;0.77;;
3783;SDS011;1907;49.238;9.262;2022-11-21T05:11:43;1.00;;;1.00;;
3783;SDS011;1907;49.238;9.262;2022-11-21T05:14:27;2.73;;;0.60;;
3783;SDS011;1907;49.238;9.262;2022-11-21T05:16:53;1.30;;;0.70;;
3783;SDS011;1907;49.238;9.262;2022-11-21T05:19:18;1.43;;;1.33;;
3783;SDS011;1907;49.238;9.262;2022-11-21T05:21:44;4.60;;;0.60;;
3783;SDS011;1907;49.238;9.262;2022-11-21T05:24:10;0.50;;;0.50;;
3783;SDS011;1907;49.238;9.262;2022-11-21T05:26:35;2.00;;;0.80;;
3783;SDS011;1907;49.238;9.262;2022-11-21T05:29:02;3.90;;;0.80;;
3783;SDS011;1907;49.238;9.262;2022-11-21T05:31:28;0.70;;;0.70;;
3783;SDS011;1907;49.238;9.262;2022-11-21T05:33:53;1.50;;;0.80;;
3783;SDS011;1907;49.238;9.262;2022-11-21T05:36:19;1.47;;;0.70;;
3783;SDS011;1907;49.238;9.262;2022-11-21T05:38:45;1.70;;;0.60;;
3783;SDS011;1907;49.238;9.262;2022-11-21T05:41:10;2.30;;;0.90;;
3783;SDS011;1907;49.238;9.262;2022-11-21T05:43:36;0.57;;;0.57;;
3783;SDS011;1907;49.238;9.262;2022-11-21T05:46:11;0.60;;;0.60;;
3783;SDS011;1907;49.238;9.262;2022-11-21T05:48:40;0.70;;;0.70;;
3783;SDS011;1907;49.238;9.262;2022-11-21T05:51:06;1.47;;;0.60;;
3783;SDS011;1907;49.238;9.262;2022-11-21T05:53:32;1.03;;;0.93;;
3783;SDS011;1907;49.238;9.262;2022-11-21T05:56:00;1.43;;;0.70;;
3783;SDS011;1907;49.238;9.262;2022-11-21T05:58:34;0.73;;;0.73;;
3783;SDS011;1907;49.238;9.262;2022-11-21T06:01:00;0.60;;;0.60;;
3783;SDS011;1907;49.238;9.262;2022-11-21T06:03:26;1.13;;;0.70;;
3783;SDS011;1907;49.238;9.262;2022-11-21T06:06:09;0.70;;;0.70;;
3783;SDS011;1907;49.238;9.262;2022-11-21T06:08:37;1.63;;;1.00;;
3783;SDS011;1907;49.238;9.262;2022-11-21T06:11:05;1.33;;;1.20;;
3783;SDS011;1907;49.238;9.262;2022-11-21T06:13:32;0.70;;;0.70;;
3783;SDS011;1907;49.238;9.262;2022-11-21T06:15:59;3.20;;;0.80;;
3783;SDS011;1907;49.238;9.262;2022-11-21T06:18:26;2.33;;;1.17;;
3783;SDS011;1907;49.238;9.262;2022-11-21T06:20:53;0.63;;;0.60;;
3783;SDS011;1907;49.238;9.262;2022-11-21T06:23:24;2.10;;;1.63;;
3783;SDS011;1907;49.238;9.262;2022-11-21T06:25:54;1.50;;;1.47;;
3783;SDS011;1907;49.238;9.262;2022-11-21T06:28:21;1.13;;;1.10;;
3783;SDS011;1907;49.238;9.262;2022-11-21T06:30:47;1.27;;;1.27;;
3783;SDS011;1907;49.238;9.262;2022-11-21T06:33:15;3.23;;;1.40;;
3783;SDS011;1907;49.238;9.262;2022-11-21T06:35:41;1.40;;;1.40;;
3783;SDS011;1907;49.238;9.262;2022-11-21T06:38:07;1.20;;;1.20;;
3783;SDS011;1907;49.238;9.262;2022-11-21T06:40:33;2.73;;;1.67;;
3783;SDS011;1907;49.238;9.262;2022-11-21T06:42:58;1.87;;;1.57;;
3783;SDS011;1907;49.238;9.262;2022-11-21T06:45:24;2.30;;;1.20;;
3783;SDS011;1907;49.238;9.262;2022-11-21T06:47:50;2.40;;;0.80;;
3783;SDS011;1907;49.238;9.262;2022-11-21T06:50:15;7.93;;;2.10;;
3783;SDS011;1907;49.238;9.262;2022-11-21T06:52:41;3.10;;;1.17;;
3783;SDS011;1907;49.238;9.262;2022-11-21T06:55:07;1.03;;;1.00;;
3783;SDS011;1907;49.238;9.262;2022-11-21T06:57:34;1.30;;;1.20;;
3783;SDS011;1907;49.238;9.262;2022-11-21T07:00:00;0.70;;;0.70;;
3783;SDS011;1907;49.238;9.262;2022-11-21T07:02:25;1.03;;;0.87;;
3783;SDS011;1907;49.238;9.262;2022-11-21T07:04:51;3.87;;;1.60;;
3783;SDS011;1907;49.238;9.262;2022-11-21T07:07:17;1.97;;;1.87;;
3783;SDS011;1907;49.238;9.262;2022-11-21T07:09:43;6.73;;;1.87;;
3783;SDS011;1907;49.238;9.262;2022-11-21T07:12:11;2.33;;;2.23;;
3783;SDS011;1907;49.238;9.262;2022-11-21T07:14:55;9.10;;;1.80;;
3783;SDS011;1907;49.238;9.262;2022-11-21T07:17:20;1.93;;;1.83;;
3783;SDS011;1907;49.238;9.262;2022-11-21T07:19:46;2.83;;;1.17;;
3783;SDS011;1907;49.238;9.262;2022-11-21T07:22:11;2.63;;;2.23;;
3783;SDS011;1907;49.238;9.262;2022-11-21T07:24:37;4.83;;;2.13;;
3783;SDS011;1907;49.238;9.262;2022-11-21T07:27:02;5.40;;;1.43;;
3783;SDS011;1907;49.238;9.262;2022-11-21T07:29:28;2.40;;;2.03;;
3783;SDS011;1907;49.238;9.262;2022-11-21T07:31:54;17.03;;;1.63;;
3783;SDS011;1907;49.238;9.262;2022-11-21T07:34:19;3.83;;;1.70;;
3783;SDS011;1907;49.238;9.262;2022-11-21T07:36:45;5.30;;;1.23;;
3783;SDS011;1907;49.238;9.262;2022-11-21T07:39:10;2.37;;;1.93;;
3783;SDS011;1907;49.238;9.262;2022-11-21T07:41:36;4.00;;;1.87;;
3783;SDS011;1907;49.238;9.262;2022-11-21T07:44:01;2.77;;;1.90;;
3783;SDS011;1907;49.238;9.262;2022-11-21T07:46:27;2.33;;;2.20;;
3783;SDS011;1907;49.238;9.262;2022-11-21T07:48:52;1.80;;;1.70;;
3783;SDS011;1907;49.238;9.262;2022-11-21T07:51:18;1.63;;;1.30;;
3783;SDS011;1907;49.238;9.262;2022-11-21T07:53:43;1.97;;;1.80;;
3783;SDS011;1907;49.238;9.262;2022-11-21T07:56:09;4.60;;;1.87;;
3783;SDS011;1907;49.238;9.262;2022-11-21T07:58:35;1.43;;;1.33;;
3783;SDS011;1907;49.238;9.262;2022-11-21T08:01:04;5.47;;;2.50;;
3783;SDS011;1907;49.238;9.262;2022-11-21T08:03:31;5.90;;;4.03;;
3783;SDS011;1907;49.238;9.262;2022-11-21T08:05:59;2.50;;;2.30;;
3783;SDS011;1907;49.238;9.262;2022-11-21T08:08:27;7.63;;;1.70;;
3783;SDS011;1907;49.238;9.262;2022-11-21T08:10:53;2.00;;;1.90;;
3783;SDS011;1907;49.238;9.262;2022-11-21T08:13:19;2.67;;;2.47;;
3783;SDS011;1907;49.238;9.262;2022-11-21T08:15:44;2.57;;;1.60;;
3783;SDS011;1907;49.238;9.262;2022-11-21T08:18:11;4.00;;;1.57;;
3783;SDS011;1907;49.238;9.262;2022-11-21T08:20:44;4.40;;;1.40;;
3783;SDS011;1907;49.238;9.262;2022-11-21T08:23:10;4.13;;;1.60;;
3783;SDS011;1907;49.238;9.262;2022-11-21T08:25:36;2.20;;;1.47;;
3783;SDS011;1907;49.238;9.262;2022-11-21T08:28:03;4.73;;;2.50;;
3783;SDS011;1907;49.238;9.262;2022-11-21T08:30:29;1.60;;;1.50;;
3783;SDS011;1907;49.238;9.262;2022-11-21T08:32:59;2.80;;;2.70;;
3783;SDS011;1907;49.238;9.262;2022-11-21T08:35:25;2.97;;;1.80;;
3783;SDS011;1907;49.238;9.262;2022-11-21T08:37:57;3.50;;;1.37;;
3783;SDS011;1907;49.238;9.262;2022-11-21T08:40:24;2.33;;;1.47;;
3783;SDS011;1907;49.238;9.262;2022-11-21T08:43:01;1.03;;;1.00;;
3783;SDS011;1907;49.238;9.262;2022-11-21T08:45:28;1.93;;;1.50;;
3783;SDS011;1907;49.238;9.262;2022-11-21T08:47:55;2.37;;;1.13;;
3783;SDS011;1907;49.238;9.262;2022-11-21T08:50:21;1.67;;;1.03;;
3783;SDS011;1907;49.238;9.262;2022-11-21T08:55:18;1.20;;;0.60;;
3783;SDS011;1907;49.238;9.262;2022-11-21T08:57:44;3.10;;;1.03;;
3783;SDS011;1907;49.238;9.262;2022-11-21T09:00:10;1.37;;;1.27;;
3783;SDS011;1907;49.238;9.262;2022-11-21T09:02:36;1.70;;;1.10;;
3783;SDS011;1907;49.238;9.262;2022-11-21T09:05:02;1.07;;;1.07;;
3783;SDS011;1907;49.238;9.262;2022-11-21T09:07:28;1.30;;;1.20;;
3783;SDS011;1907;49.238;9.262;2022-11-21T09:09:53;1.20;;;1.03;;
3783;SDS011;1907;49.238;9.262;2022-11-21T09:12:19;2.57;;;1.50;;
3783;SDS011;1907;49.238;9.262;2022-11-21T09:14:45;0.70;;;0.70;;
3783;SDS011;1907;49.238;9.262;2022-11-21T09:17:29;1.27;;;0.83;;
3783;SDS011;1907;49.238;9.262;2022-11-21T09:20:12;2.20;;;0.90;;
3783;SDS011;1907;49.238;9.262;2022-11-21T09:22:38;4.40;;;1.00;;
3783;SDS011;1907;49.238;9.262;2022-11-21T09:25:04;1.57;;;0.80;;
3783;SDS011;1907;49.238;9.262;2022-11-21T09:27:30;2.30;;;1.37;;
3783;SDS011;1907;49.238;9.262;2022-11-21T09:29:55;0.97;;;0.80;;
3783;SDS011;1907;49.238;9.262;2022-11-21T09:32:21;16.33;;;1.10;;
3783;SDS011;1907;49.238;9.262;2022-11-21T09:34:47;2.10;;;1.27;;
3783;SDS011;1907;49.238;9.262;2022-11-21T09:37:13;1.60;;;1.23;;
3783;SDS011;1907;49.238;9.262;2022-11-21T09:39:39;3.23;;;1.50;;
3783;SDS011;1907;49.238;9.262;2022-11-21T09:47:20;2.50;;;0.87;;
3783;SDS011;1907;49.238;9.262;2022-11-21T09:49:56;1.40;;;0.97;;
3783;SDS011;1907;49.238;9.262;2022-11-21T09:52:37;3.10;;;0.90;;
3783;SDS011;1907;49.238;9.262;2022-11-21T09:55:16;2.13;;;1.37;;
3783;SDS011;1907;49.238;9.262;2022-11-21T09:57:53;1.20;;;1.10;;
3783;SDS011;1907;49.238;9.262;2022-11-21T10:00:21;2.53;;;1.27;;
3783;SDS011;1907;49.238;9.262;2022-11-21T10:02:48;1.03;;;0.90;;
3783;SDS011;1907;49.238;9.262;2022-11-21T10:05:15;1.50;;;0.77;;
3783;SDS011;1907;49.238;9.262;2022-11-21T10:07:45;1.93;;;0.70;;
3783;SDS011;1907;49.238;9.262;2022-11-21T10:10:49;0.93;;;0.50;;
3783;SDS011;1907;49.238;9.262;2022-11-21T10:13:18;5.80;;;1.27;;
3783;SDS011;1907;49.238;9.262;2022-11-21T10:32:02;2.37;;;0.77;;
3783;SDS011;1907;49.238;9.262;2022-11-21T10:34:49;4.93;;;1.40;;
3783;SDS011;1907;49.238;9.262;2022-11-21T10:37:59;2.33;;;1.03;;
3783;SDS011;1907;49.238;9.262;2022-11-21T10:42:47;4.03;;;0.83;;
3783;SDS011;1907;49.238;9.262;2022-11-21T10:45:44;2.60;;;1.10;;
3783;SDS011;1907;49.238;9.262;2022-11-21T10:48:10;1.03;;;0.93;;
3783;SDS011;1907;49.238;9.262;2022-11-21T10:50:40;1.10;;;0.90;;
3783;SDS011;1907;49.238;9.262;2022-11-21T10:53:23;1.03;;;0.80;;
3783;SDS011;1907;49.238;9.262;2022-11-21T10:56:10;6.43;;;1.20;;
3783;SDS011;1907;49.238;9.262;2022-11-21T11:01:05;5.10;;;1.03;;
3783;SDS011;1907;49.238;9.262;2022-11-21T11:03:42;6.50;;;1.23;;
3783;SDS011;1907;49.238;9.262;2022-11-21T11:06:09;2.10;;;0.97;;
3783;SDS011;1907;49.238;9.262;2022-11-21T11:08:50;1.00;;;0.80;;
3783;SDS011;1907;49.238;9.262;2022-11-21T11:11:19;1.40;;;1.30;;
3783;SDS011;1907;49.238;9.262;2022-11-21T11:14:04;1.20;;;1.10;;
3783;SDS011;1907;49.238;9.262;2022-11-21T11:16:37;1.60;;;1.00;;
3783;SDS011;1907;49.238;9.262;2022-11-21T11:34:40;1.10;;;1.00;;
3783;SDS011;1907;49.238;9.262;2022-11-21T11:37:34;3.73;;;1.03;;
3783;SDS011;1907;49.238;9.262;2022-11-21T11:45:42;1.07;;;0.97;;
3783;SDS011;1907;49.238;9.262;2022-11-21T11:48:46;3.07;;;0.80;;
3783;SDS011;1907;49.238;9.262;2022-11-21T11:54:12;1.50;;;1.00;;
3783;SDS011;1907;49.238;9.262;2022-11-21T11:56:42;2.77;;;0.70;;
3783;SDS011;1907;49.238;9.262;2022-11-21T12:04:24;6.00;;;1.20;;
3783;SDS011;1907;49.238;9.262;2022-11-21T12:07:07;2.40;;;0.80;;
3783;SDS011;1907;49.238;9.262;2022-11-21T12:09:49;4.83;;;0.87;;
3783;SDS011;1907;49.238;9.262;2022-11-21T12:12:35;1.60;;;1.10;;
3783;SDS011;1907;49.238;9.262;2022-11-21T12:20:33;1.27;;;0.80;;
3783;SDS011;1907;49.238;9.262;2022-11-21T12:23:08;2.60;;;0.87;;
3783;SDS011;1907;49.238;9.262;2022-11-21T12:25:37;0.80;;;0.80;;
3783;SDS011;1907;49.238;9.262;2022-11-21T12:28:11;6.73;;;1.43;;
3783;SDS011;1907;49.238;9.262;2022-11-21T12:30:49;1.53;;;0.83;;
3783;SDS011;1907;49.238;9.262;2022-11-21T12:33:30;1.00;;;0.83;;
3783;SDS011;1907;49.238;9.262;2022-11-21T12:36:16;4.23;;;1.20;;
3783;SDS011;1907;49.238;9.262;2022-11-21T12:38:55;1.53;;;1.00;;
3783;SDS011;1907;49.238;9.262;2022-11-21T12:44:11;5.27;;;0.80;;
3783;SDS011;1907;49.238;9.262;2022-11-21T12:52:49;0.97;;;0.90;;
3783;SDS011;1907;49.238;9.262;2022-11-21T12:55:39;4.40;;;0.70;;
3783;SDS011;1907;49.238;9.262;2022-11-21T13:06:37;3.70;;;0.90;;
3783;SDS011;1907;49.238;9.262;2022-11-21T13:09:06;2.40;;;0.60;;
3783;SDS011;1907;49.238;9.262;2022-11-21T13:20:16;9.60;;;0.90;;
3783;SDS011;1907;49.238;9.262;2022-11-21T13:22:48;7.33;;;0.87;;
3783;SDS011;1907;49.238;9.262;2022-11-21T13:30:49;1.80;;;1.07;;
3783;SDS011;1907;49.238;9.262;2022-11-21T13:46:59;1.30;;;1.20;;
3783;SDS011;1907;49.238;9.262;2022-11-21T13:49:55;5.93;;;2.50;;
3783;SDS011;1907;49.238;9.262;2022-11-21T13:57:57;1.47;;;0.80;;
3783;SDS011;1907;49.238;9.262;2022-11-21T14:00:48;4.83;;;1.10;;
3783;SDS011;1907;49.238;9.262;2022-11-21T14:03:53;3.67;;;1.00;;
3783;SDS011;1907;49.238;9.262;2022-11-21T14:09:50;4.80;;;1.00;;
3783;SDS011;1907;49.238;9.262;2022-11-21T14:11:58;0.80;;;0.73;;
3783;SDS011;1907;49.238;9.262;2022-11-21T14:14:50;2.30;;;1.33;;
3783;SDS011;1907;49.238;9.262;2022-11-21T14:20:26;1.03;;;0.90;;
3783;SDS011;1907;49.238;9.262;2022-11-21T14:23:19;3.07;;;1.10;;
3783;SDS011;1907;49.238;9.262;2022-11-21T14:25:47;4.10;;;1.00;;
3783;SDS011;1907;49.238;9.262;2022-11-21T14:28:15;1.30;;;0.80;;
3783;SDS011;1907;49.238;9.262;2022-11-21T14:30:47;9.63;;;1.33;;
3783;SDS011;1907;49.238;9.262;2022-11-21T14:33:31;5.33;;;1.13;;
3783;SDS011;1907;49.238;9.262;2022-11-21T14:38:59;1.43;;;1.33;;
3783;SDS011;1907;49.238;9.262;2022-11-21T14:41:31;0.80;;;0.73;;
3783;SDS011;1907;49.238;9.262;2022-11-21T14:46:28;1.33;;;0.70;;
3783;SDS011;1907;49.238;9.262;2022-11-21T14:48:55;4.23;;;0.90;;
3783;SDS011;1907;49.238;9.262;2022-11-21T14:51:24;0.90;;;0.90;;
3783;SDS011;1907;49.238;9.262;2022-11-21T14:53:51;7.23;;;1.30;;
3783;SDS011;1907;49.238;9.262;2022-11-21T14:56:25;6.80;;;2.10;;
3783;SDS011;1907;49.238;9.262;2022-11-21T14:58:54;1.70;;;0.70;;
3783;SDS011;1907;49.238;9.262;2022-11-21T15:01:23;1.77;;;0.80;;
3783;SDS011;1907;49.238;9.262;2022-11-21T15:03:59;2.03;;;0.97;;
3783;SDS011;1907;49.238;9.262;2022-11-21T15:06:29;0.67;;;0.67;;
3783;SDS011;1907;49.238;9.262;2022-11-21T15:08:57;3.20;;;1.53;;
3783;SDS011;1907;49.238;9.262;2022-11-21T15:11:37;1.23;;;1.07;;
3783;SDS011;1907;49.238;9.262;2022-11-21T15:14:10;3.83;;;0.87;;
3783;SDS011;1907;49.238;9.262;2022-11-21T15:16:47;1.80;;;1.23;;
3783;SDS011;1907;49.238;9.262;2022-11-21T15:19:19;1.47;;;1.13;;
3783;SDS011;1907;49.238;9.262;2022-11-21T15:21:46;2.17;;;1.40;;
3783;SDS011;1907;49.238;9.262;2022-11-21T15:24:16;1.00;;;1.00;;
3783;SDS011;1907;49.238;9.262;2022-11-21T15:26:51;1.90;;;1.27;;
3783;SDS011;1907;49.238;9.262;2022-11-21T15:29:18;4.07;;;1.90;;
3783;SDS011;1907;49.238;9.262;2022-11-21T15:34:32;2.00;;;1.90;;
3783;SDS011;1907;49.238;9.262;2022-11-21T15:37:04;4.83;;;1.73;;
3783;SDS011;1907;49.238;9.262;2022-11-21T15:39:44;2.97;;;1.50;;
3783;SDS011;1907;49.238;9.262;2022-11-21T15:45:02;11.50;;;2.13;;
3783;SDS011;1907;49.238;9.262;2022-11-21T15:47:47;1.07;;;1.07;;
3783;SDS011;1907;49.238;9.262;2022-11-21T15:50:14;1.30;;;1.20;;
3783;SDS011;1907;49.238;9.262;2022-11-21T15:52:44;4.13;;;1.83;;
3783;SDS011;1907;49.238;9.262;2022-11-21T15:55:12;1.97;;;1.87;;
3783;SDS011;1907;49.238;9.262;2022-11-21T15:57:43;1.17;;;1.07;;
3783;SDS011;1907;49.238;9.262;2022-11-21T16:00:09;1.17;;;1.07;;
3783;SDS011;1907;49.238;9.262;2022-11-21T16:02:35;6.10;;;1.90;;
3783;SDS011;1907;49.238;9.262;2022-11-21T16:05:01;2.37;;;2.23;;
3783;SDS011;1907;49.238;9.262;2022-11-21T16:07:26;1.37;;;1.30;;
3783;SDS011;1907;49.238;9.262;2022-11-21T16:09:52;2.53;;;2.43;;
3783;SDS011;1907;49.238;9.262;2022-11-21T16:12:19;3.00;;;2.90;;
3783;SDS011;1907;49.238;9.262;2022-11-21T16:14:45;4.20;;;3.77;;
3783;SDS011;1907;49.238;9.262;2022-11-21T16:17:11;3.50;;;3.20;;
3783;SDS011;1907;49.238;9.262;2022-11-21T16:19:36;4.10;;;2.70;;
3783;SDS011;1907;49.238;9.262;2022-11-21T16:22:02;7.23;;;2.43;;
3783;SDS011;1907;49.238;9.262;2022-11-21T16:24:27;4.80;;;2.20;;
3783;SDS011;1907;49.238;9.262;2022-11-21T16:26:53;2.50;;;2.37;;
3783;SDS011;1907;49.238;9.262;2022-11-21T16:29:19;1.53;;;1.43;;
3783;SDS011;1907;49.238;9.262;2022-11-21T16:31:45;1.73;;;1.63;;
3783;SDS011;1907;49.238;9.262;2022-11-21T16:34:17;2.80;;;1.90;;
3783;SDS011;1907;49.238;9.262;2022-11-21T16:36:42;2.10;;;2.00;;
3783;SDS011;1907;49.238;9.262;2022-11-21T16:39:08;4.63;;;2.30;;
3783;SDS011;1907;49.238;9.262;2022-11-21T16:41:34;8.40;;;3.27;;
3783;SDS011;1907;49.238;9.262;2022-11-21T16:43:59;4.80;;;2.67;;
3783;SDS011;1907;49.238;9.262;2022-11-21T16:46:25;5.13;;;2.43;;
3783;SDS011;1907;49.238;9.262;2022-11-21T16:48:57;2.67;;;2.50;;
3783;SDS011;1907;49.238;9.262;2022-11-21T16:51:24;2.17;;;1.90;;
3783;SDS011;1907;49.238;9.262;2022-11-21T16:53:50;4.13;;;2.97;;
3783;SDS011;1907;49.238;9.262;2022-11-21T16:56:16;3.20;;;3.00;;
3783;SDS011;1907;49.238;9.262;2022-11-21T16:58:41;4.90;;;2.33;;
3783;SDS011;1907;49.238;9.262;2022-11-21T17:01:18;2.20;;;2.03;;
3783;SDS011;1907;49.238;9.262;2022-11-21T17:03:48;2.73;;;2.00;;
3783;SDS011;1907;49.238;9.262;2022-11-21T17:06:15;2.80;;;1.63;;
3783;SDS011;1907;49.238;9.262;2022-11-21T17:08:50;2.07;;;1.97;;
3783;SDS011;1907;49.238;9.262;2022-11-21T17:11:17;2.73;;;2.37;;
3783;SDS011;1907;49.238;9.262;2022-11-21T17:13:50;2.27;;;2.17;;
3783;SDS011;1907;49.238;9.262;2022-11-21T17:16:16;3.77;;;3.57;;
3783;SDS011;1907;49.238;9.262;2022-11-21T17:18:43;2.83;;;2.73;;
3783;SDS011;1907;49.238;9.262;2022-11-21T17:21:11;1.90;;;1.80;;
3783;SDS011;1907;49.238;9.262;2022-11-21T17:23:38;2.30;;;2.10;;
3783;SDS011;1907;49.238;9.262;2022-11-21T17:26:07;2.80;;;2.70;;
3783;SDS011;1907;49.238;9.262;2022-11-21T17:28:34;2.27;;;2.17;;
3783;SDS011;1907;49.238;9.262;2022-11-21T17:31:04;1.90;;;1.80;;
3783;SDS011;1907;49.238;9.262;2022-11-21T17:33:37;2.07;;;1.97;;
3783;SDS011;1907;49.238;9.262;2022-11-21T17:36:03;4.13;;;2.23;;
3783;SDS011;1907;49.238;9.262;2022-11-21T17:38:30;2.90;;;2.70;;
3783;SDS011;1907;49.238;9.262;2022-11-21T17:41:00;3.33;;;2.10;;
3783;SDS011;1907;49.238;9.262;2022-11-21T17:43:30;2.47;;;2.27;;
3783;SDS011;1907;49.238;9.262;2022-11-21T17:45:57;3.10;;;2.83;;
3783;SDS011;1907;49.238;9.262;2022-11-21T17:48:27;3.13;;;3.03;;
3783;SDS011;1907;49.238;9.262;2022-11-21T17:51:03;9.93;;;4.10;;
3783;SDS011;1907;49.238;9.262;2022-11-21T17:53:30;2.80;;;2.70;;
3783;SDS011;1907;49.238;9.262;2022-11-21T17:55:57;3.30;;;3.00;;